Time;durP1;ratioP1;P1;durP2;ratioP2;P2;SDS_P1;SDS_P2;PMS_P1;PMS_P2;Temp;Humidity;BMP_temperature;BMP_pressure;BME280_temperature;BME280_humidity;BME280_pressure;Samples;Min_cycle;Max_cycle;Signal;HPM_P1;HPM_P2
2023/12/22 00:00:17;;;;;;;8.40;2.30;;;;;;;4.61;100.00;95967.36;271828;1269;25392;-91
2023/12/22 00:06:44;;;;;;;6.80;2.50;;;;;;;4.59;100.00;95972.48;270676;1267;22545;-92
2023/12/22 00:12:51;;;;;;;5.70;2.00;;;;;;;4.60;100.00;95979.38;271360;1270;25142;-90
2023/12/22 00:18:53;;;;;;;6.50;2.30;;;;;;;4.58;100.00;95986.23;272583;1272;22316;-90
2023/12/22 00:24:59;;;;;;;8.30;2.40;;;;;;;4.50;100.00;95987.71;273956;1269;22305;-93
2023/12/22 00:31:01;;;;;;;6.50;2.30;;;;;;;4.47;100.00;95982.27;273877;1270;22182;-91
2023/12/22 00:37:04;;;;;;;16.40;2.60;;;;;;;4.43;100.00;95999.27;273732;1269;22254;-91
2023/12/22 00:43:06;;;;;;;14.30;2.50;;;;;;;4.40;100.00;96009.83;270946;1272;22394;-89
2023/12/22 00:49:08;;;;;;;16.50;2.80;;;;;;;4.36;100.00;96013.98;272960;1270;23072;-90
2023/12/22 00:55:10;;;;;;;13.60;3.10;;;;;;;4.31;100.00;96023.39;273871;1269;22244;-90
2023/12/22 01:01:12;;;;;;;12.30;2.60;;;;;;;4.26;100.00;96047.67;273725;1270;22264;-89
2023/12/22 01:07:14;;;;;;;10.00;2.40;;;;;;;4.19;100.00;96049.45;273720;1267;22208;-90
2023/12/22 01:13:21;;;;;;;12.00;3.60;;;;;;;4.18;100.00;96062.86;273712;1266;22679;-92
2023/12/22 01:19:23;;;;;;;8.00;1.80;;;;;;;4.23;100.00;96079.75;273046;1272;22430;-90
2023/12/22 01:25:25;;;;;;;9.00;1.70;;;;;;;4.25;100.00;96084.29;273996;1265;23004;-90
2023/12/22 01:31:29;;;;;;;3.30;1.40;;;;;;;4.11;100.00;96091.16;273368;1267;22215;-94
2023/12/22 01:37:32;;;;;;;8.10;1.40;;;;;;;3.92;100.00;96095.67;273923;1270;22188;-91
2023/12/22 01:43:34;;;;;;;5.30;1.70;;;;;;;3.80;100.00;96099.88;272290;1272;24066;-90
2023/12/22 01:49:36;;;;;;;5.10;1.90;;;;;;;3.73;100.00;96108.13;272610;1267;22383;-91
2023/12/22 01:55:38;;;;;;;5.30;1.70;;;;;;;3.68;100.00;96120.92;273879;1268;23122;-91
2023/12/22 02:01:40;;;;;;;9.90;2.00;;;;;;;3.69;100.00;96122.39;271711;1272;22535;-90
2023/12/22 02:07:42;;;;;;;6.20;1.60;;;;;;;3.69;100.00;96120.67;271671;1267;23788;-90
2023/12/22 02:13:45;;;;;;;8.10;1.70;;;;;;;3.70;100.00;96121.38;271786;1273;22569;-90
2023/12/22 02:19:47;;;;;;;5.40;1.70;;;;;;;3.72;100.00;96112.79;270641;1267;22675;-89
2023/12/22 02:25:50;;;;;;;9.70;1.90;;;;;;;3.70;100.00;96112.64;263629;1267;10001809;-90
2023/12/22 02:31:54;;;;;;;11.20;1.80;;;;;;;3.62;100.00;96124.61;272338;1260;108844;-91
2023/12/22 02:37:57;;;;;;;7.10;1.80;;;;;;;3.54;100.00;96127.61;272364;1267;23640;-90
2023/12/22 02:43:59;;;;;;;7.50;1.70;;;;;;;3.56;100.00;96127.89;272854;1267;22529;-90
2023/12/22 02:50:01;;;;;;;5.90;1.50;;;;;;;3.55;100.00;96128.14;271950;1267;23774;-92
2023/12/22 02:56:03;;;;;;;4.90;1.60;;;;;;;3.51;100.00;96125.00;272938;1267;22571;-91
2023/12/22 03:02:05;;;;;;;8.50;2.10;;;;;;;3.47;100.00;96116.38;273267;1270;23085;-89
2023/12/22 03:08:07;;;;;;;7.00;1.60;;;;;;;3.39;100.00;96123.31;273550;1267;22243;-91
2023/12/22 03:14:10;;;;;;;3.90;1.20;;;;;;;3.44;100.00;96129.30;273129;1267;22298;-92
2023/12/22 03:20:14;;;;;;;10.60;1.60;;;;;;;3.50;100.00;96118.52;274103;1267;24860;-91
2023/12/22 03:26:19;;;;;;;4.80;1.10;;;;;;;3.51;100.00;96111.41;273267;1267;22306;-91
2023/12/22 03:32:25;;;;;;;4.10;1.40;;;;;;;3.60;100.00;96116.05;273575;1267;22437;-91
2023/12/22 03:38:33;;;;;;;4.30;0.90;;;;;;;3.67;100.00;96111.27;272522;1267;23266;-93
2023/12/22 03:44:36;;;;;;;3.70;0.80;;;;;;;3.70;100.00;96119.20;273449;1267;22421;-91
2023/12/22 03:50:42;;;;;;;5.60;1.10;;;;;;;3.75;100.00;96122.80;272181;1267;22868;-91
2023/12/22 03:56:46;;;;;;;7.60;1.30;;;;;;;3.71;100.00;96129.64;272975;1266;22509;-92
2023/12/22 04:02:53;;;;;;;10.70;1.50;;;;;;;3.62;100.00;96150.34;273401;1267;23618;-91
2023/12/22 04:08:58;;;;;;;6.60;1.40;;;;;;;3.58;100.00;96147.89;272040;1269;25453;-91
2023/12/22 04:15:15;;;;;;;5.10;1.30;;;;;;;3.57;100.00;96148.91;272240;1266;22611;-91
2023/12/22 04:21:19;;;;;;;8.60;1.70;;;;;;;3.56;100.00;96153.02;271150;1269;25313;-91
2023/12/22 04:27:21;;;;;;;6.90;1.70;;;;;;;3.45;100.00;96156.41;271741;1260;25303;-90
2023/12/22 04:33:28;;;;;;;11.20;2.50;;;;;;;3.41;100.00;96157.52;272164;1266;22269;-92
2023/12/22 04:39:33;;;;;;;9.20;1.70;;;;;;;3.41;100.00;96147.09;273608;1267;22226;-90
2023/12/22 04:45:40;;;;;;;7.10;1.60;;;;;;;3.43;100.00;96144.15;274131;1267;22533;-91
2023/12/22 04:51:42;;;;;;;8.90;1.70;;;;;;;3.47;100.00;96136.84;273005;1266;22202;-91
2023/12/22 04:57:47;;;;;;;8.00;1.70;;;;;;;3.54;100.00;96121.42;272374;1266;22393;-91
2023/12/22 05:03:53;;;;;;;9.50;1.50;;;;;;;3.60;100.00;96109.63;274234;1266;22930;-91
2023/12/22 05:09:55;;;;;;;7.40;1.50;;;;;;;3.63;100.00;96108.23;273027;1266;22276;-89
2023/12/22 05:15:57;;;;;;;10.00;1.70;;;;;;;3.66;100.00;96110.36;273928;1269;142436;-90
2023/12/22 05:22:02;;;;;;;6.70;2.00;;;;;;;3.69;100.00;96118.91;274245;1266;23045;-90
2023/12/22 05:28:04;;;;;;;5.20;1.40;;;;;;;3.76;100.00;96121.56;274117;1264;23190;-91
2023/12/22 05:34:07;;;;;;;7.80;1.10;;;;;;;3.80;99.94;96134.75;274284;1264;22968;-91
2023/12/22 05:40:12;;;;;;;9.30;1.70;;;;;;;3.71;99.94;96148.27;274085;1267;23833;-90
2023/12/22 05:46:17;;;;;;;4.30;1.00;;;;;;;3.45;100.00;96214.21;274052;1267;22182;-91
2023/12/22 06:54:57;;;;;;;16.00;4.00;;;;;;;0.58;100.00;96316.23;264039;1301;546778;-90
2023/12/22 07:00:59;;;;;;;19.90;4.40;;;;;;;0.63;100.00;96320.48;271401;1283;22404;-91
2023/12/22 07:07:04;;;;;;;11.50;2.90;;;;;;;0.71;100.00;96321.16;270603;1280;176468;-91
2023/12/22 07:13:06;;;;;;;12.30;4.20;;;;;;;0.79;100.00;96330.21;269621;1281;22298;-91
2023/12/22 07:19:09;;;;;;;9.40;3.30;;;;;;;0.85;100.00;96338.73;268482;1281;25505;-90
2023/12/22 07:25:10;;;;;;;11.90;4.00;;;;;;;0.89;100.00;96322.35;268069;1279;24623;-91
2023/12/22 07:31:12;;;;;;;13.80;3.40;;;;;;;0.91;100.00;96327.22;269821;1280;22405;-90
2023/12/22 07:37:14;;;;;;;12.70;4.30;;;;;;;1.01;100.00;96328.65;271649;1280;23430;-90
2023/12/22 07:43:16;;;;;;;14.00;3.80;;;;;;;1.10;100.00;96327.47;271707;1281;22204;-90
2023/12/22 07:49:18;;;;;;;10.90;3.20;;;;;;;1.19;100.00;96332.68;271393;1279;22240;-91
2023/12/22 07:55:23;;;;;;;19.50;5.00;;;;;;;1.28;100.00;96343.13;271290;1281;22208;-90
2023/12/22 08:01:29;;;;;;;15.70;5.00;;;;;;;1.38;100.00;96345.94;271633;1279;22246;-90
2023/12/22 08:07:31;;;;;;;10.90;3.60;;;;;;;1.53;100.00;96340.84;271678;1280;22219;-90
2023/12/22 08:13:33;;;;;;;10.70;4.00;;;;;;;1.64;100.00;96331.70;271677;1281;22411;-90
2023/12/22 08:19:37;;;;;;;8.60;2.40;;;;;;;1.68;100.00;96325.09;271631;1284;22473;-90
2023/12/22 08:25:41;;;;;;;7.80;2.60;;;;;;;1.84;100.00;96324.44;272773;1278;22263;-90
2023/12/22 08:31:43;;;;;;;8.20;2.20;;;;;;;2.04;100.00;96328.88;271776;1271;22538;-92
2023/12/22 08:38:51;;;;;;;7.50;2.20;;;;;;;2.25;100.00;96320.10;273111;1270;22405;-91
2023/12/22 08:45:02;;;;;;;7.80;2.40;;;;;;;2.75;100.00;96315.29;269372;1273;22540;-91
2023/12/22 08:51:09;;;;;;;6.10;1.60;;;;;;;3.19;100.00;96318.53;272667;1270;22193;-89
2023/12/22 08:57:22;;;;;;;6.00;1.50;;;;;;;3.27;100.00;96318.20;270497;1270;22542;-90
2023/12/22 09:03:26;;;;;;;5.10;1.30;;;;;;;3.24;100.00;96324.38;270462;1270;22564;-90
2023/12/22 09:09:30;;;;;;;7.40;1.90;;;;;;;3.19;100.00;96329.50;272301;1271;22776;-88
2023/12/22 09:15:42;;;;;;;8.20;1.90;;;;;;;3.17;100.00;96340.33;269477;1271;23243;-90
2023/12/22 09:21:46;;;;;;;9.50;2.10;;;;;;;3.13;100.00;96358.80;270080;1270;22671;-88
2023/12/22 09:27:50;;;;;;;5.60;1.70;;;;;;;2.93;100.00;96384.98;270151;1270;23309;-89
2023/12/22 09:33:54;;;;;;;7.40;2.20;;;;;;;2.51;100.00;96381.75;271116;1270;22272;-90
2023/12/22 09:39:57;;;;;;;7.60;2.00;;;;;;;2.32;100.00;96360.22;273701;1270;22515;-89
2023/12/22 09:45:59;;;;;;;7.20;2.50;;;;;;;2.39;100.00;96356.75;273707;1268;22405;-90
2023/12/22 09:52:07;;;;;;;4.90;2.40;;;;;;;2.51;100.00;96344.95;273824;1268;22453;-91
2023/12/22 09:58:16;;;;;;;8.30;2.90;;;;;;;2.65;100.00;96332.83;273485;1273;22771;-91
2023/12/22 10:04:20;;;;;;;6.40;2.10;;;;;;;2.80;100.00;96323.48;273691;1267;22482;-90
2023/12/22 10:10:23;;;;;;;4.80;2.10;;;;;;;3.04;100.00;96319.35;272887;1269;25274;-90
2023/12/22 10:16:25;;;;;;;9.50;2.20;;;;;;;3.13;100.00;96322.27;272314;1267;22366;-89
2023/12/22 10:22:30;;;;;;;7.90;2.10;;;;;;;3.07;100.00;96323.59;272912;1267;22464;-92
2023/12/22 10:28:32;;;;;;;12.10;2.70;;;;;;;3.06;100.00;96326.36;273414;1264;23690;-90
2023/12/22 10:34:38;;;;;;;9.50;3.20;;;;;;;3.05;100.00;96320.17;271095;1270;22357;-92
2023/12/22 10:40:40;;;;;;;10.90;2.10;;;;;;;3.10;100.00;96317.94;272262;1269;22309;-91
2023/12/22 10:46:50;;;;;;;12.10;3.40;;;;;;;3.38;100.00;96316.00;273756;1269;22314;-90
2023/12/22 10:52:55;;;;;;;12.40;2.80;;;;;;;3.64;100.00;96318.20;272040;1267;23923;-90
2023/12/22 10:59:02;;;;;;;10.80;2.30;;;;;;;3.71;100.00;96301.63;272403;1270;23534;-90
2023/12/22 11:05:05;;;;;;;7.70;2.20;;;;;;;3.71;100.00;96286.70;273224;1273;22210;-91
2023/12/22 11:11:15;;;;;;;6.40;2.30;;;;;;;3.78;100.00;96274.30;272952;1268;22191;-90
2023/12/22 11:17:29;;;;;;;11.20;2.20;;;;;;;3.83;100.00;96283.79;273340;1268;22366;-91
2023/12/22 11:23:31;;;;;;;13.20;2.70;;;;;;;3.69;100.00;96286.65;273131;1268;23917;-89
2023/12/22 11:29:38;;;;;;;8.80;2.10;;;;;;;3.37;100.00;96275.28;271052;1268;22225;-90
2023/12/22 11:35:41;;;;;;;12.20;3.20;;;;;;;2.97;100.00;96276.50;272486;1267;23341;-90
2023/12/22 11:41:43;;;;;;;7.70;2.20;;;;;;;2.51;100.00;96287.55;272323;1260;22229;-90
2023/12/22 11:47:48;;;;;;;3.80;1.10;;;;;;;1.85;100.00;96303.23;271254;1267;22630;-89
2023/12/22 11:53:50;;;;;;;4.30;1.50;;;;;;;1.33;100.00;96317.65;270890;1268;22534;-90
2023/12/22 12:00:03;;;;;;;2.30;1.00;;;;;;;1.04;100.00;96312.66;270338;1268;25265;-89
2023/12/22 12:06:18;;;;;;;7.00;1.70;;;;;;;0.93;100.00;96297.90;271657;1268;22920;-88
2023/12/22 12:12:24;;;;;;;4.60;2.20;;;;;;;0.94;100.00;96322.77;273295;1268;22190;-92
2023/12/22 12:18:34;;;;;;;8.50;3.00;;;;;;;0.95;100.00;96328.78;271490;1267;23290;-89
2023/12/22 12:24:39;;;;;;;7.70;3.20;;;;;;;0.91;100.00;96341.52;271588;1267;22957;-88
2023/12/22 12:30:41;;;;;;;8.90;4.30;;;;;;;0.95;100.00;96329.55;271407;1267;25482;-88
2023/12/22 12:36:47;;;;;;;9.50;4.00;;;;;;;1.01;100.00;96311.34;271441;1267;25456;-88
2023/12/22 12:42:50;;;;;;;8.20;3.90;;;;;;;1.09;100.00;96300.77;271090;1268;24240;-88
2023/12/22 12:49:04;;;;;;;9.90;3.80;;;;;;;1.15;100.00;96291.16;272425;1268;22329;-87
2023/12/22 12:55:06;;;;;;;14.30;4.60;;;;;;;1.20;100.00;96287.65;272238;1267;24242;-86
2023/12/22 13:01:12;;;;;;;13.10;4.90;;;;;;;1.24;100.00;96285.42;270119;1269;23292;-87
2023/12/22 13:07:14;;;;;;;14.80;4.50;;;;;;;1.27;100.00;96269.65;270689;1267;22561;-87
2023/12/22 13:13:16;;;;;;;20.10;5.00;;;;;;;1.29;100.00;96258.36;270912;1267;22423;-88
2023/12/22 13:19:18;;;;;;;8.70;3.60;;;;;;;1.34;100.00;96247.27;270239;1268;22631;-88
2023/12/22 13:25:21;;;;;;;9.30;3.10;;;;;;;1.38;100.00;96238.35;270715;1267;22576;-89
2023/12/22 13:31:27;;;;;;;7.30;2.40;;;;;;;1.52;100.00;96262.27;270269;1267;22584;-91
2023/12/22 13:37:30;;;;;;;3.10;1.20;;;;;;;1.59;100.00;96301.10;271099;1268;22864;-92
2023/12/22 13:43:46;;;;;;;7.40;2.10;;;;;;;1.41;100.00;96299.89;272250;1268;23082;-90
2023/12/22 13:49:51;;;;;;;7.40;1.70;;;;;;;1.26;100.00;96297.91;272643;1267;22490;-90
2023/12/22 13:56:02;;;;;;;5.40;2.00;;;;;;;1.20;100.00;96304.52;271678;1267;22556;-89
2023/12/22 14:02:05;;;;;;;11.80;2.80;;;;;;;1.18;100.00;96315.44;272154;1267;22281;-90
2023/12/22 14:08:07;;;;;;;7.60;2.50;;;;;;;1.27;100.00;96318.23;271950;1268;22515;-89
2023/12/22 14:14:09;;;;;;;7.90;2.00;;;;;;;1.35;100.00;96315.50;270758;1267;22558;-90
2023/12/22 14:20:14;;;;;;;6.50;2.10;;;;;;;1.36;100.00;96313.11;271388;1267;23296;-91
2023/12/22 14:26:22;;;;;;;4.80;2.00;;;;;;;1.37;100.00;96304.73;272963;1268;22237;-90
2023/12/22 14:32:26;;;;;;;10.90;3.00;;;;;;;1.43;100.00;96307.75;273547;1268;22281;-91
2023/12/22 14:38:30;;;;;;;9.60;1.70;;;;;;;1.49;100.00;96319.48;273203;1268;22405;-93
2023/12/22 14:44:38;;;;;;;4.10;1.40;;;;;;;1.64;100.00;96315.68;271285;1267;22667;-91
2023/12/22 14:50:41;;;;;;;3.70;1.40;;;;;;;1.75;100.00;96315.32;272778;1268;22582;-89
2023/12/22 14:56:46;;;;;;;8.10;1.90;;;;;;;1.75;100.00;96327.50;273354;1268;22350;-92
2023/12/22 15:02:49;;;;;;;9.20;2.30;;;;;;;1.83;100.00;96323.98;272532;1268;22661;-91
2023/12/22 15:08:53;;;;;;;7.20;2.50;;;;;;;1.87;99.71;96325.75;272532;1268;22598;-91
2023/12/22 15:15:06;;;;;;;6.30;2.60;;;;;;;1.87;100.00;96327.84;273121;1269;23353;-92
2023/12/22 15:21:08;;;;;;;7.00;3.10;;;;;;;1.83;100.00;96326.14;271556;1268;22569;-89
2023/12/22 15:27:16;;;;;;;9.00;2.40;;;;;;;1.78;100.00;96331.83;272547;1268;24659;-92
2023/12/22 15:33:21;;;;;;;12.80;3.40;;;;;;;1.81;100.00;96339.77;271283;1267;22647;-91
2023/12/22 15:39:32;;;;;;;10.80;3.00;;;;;;;1.81;99.94;96335.23;271419;1268;23731;-91
2023/12/22 15:45:44;;;;;;;5.70;2.40;;;;;;;1.82;99.75;96322.98;270811;1268;24219;-91
2023/12/22 15:51:50;;;;;;;6.70;2.10;;;;;;;1.84;99.06;96314.64;270844;1267;22959;-91
2023/12/22 15:57:52;;;;;;;5.20;1.70;;;;;;;1.85;98.38;96313.51;271539;1268;22562;-92
2023/12/22 16:03:54;;;;;;;5.70;1.80;;;;;;;1.87;97.72;96314.58;271199;1268;24251;-91
2023/12/22 16:09:57;;;;;;;5.40;1.90;;;;;;;1.88;96.73;96314.27;273009;1268;22200;-92
2023/12/22 16:16:04;;;;;;;7.40;1.90;;;;;;;1.84;96.31;96324.45;272079;1268;22660;-92
2023/12/22 16:22:06;;;;;;;7.30;2.20;;;;;;;1.81;95.64;96330.60;270574;1268;26197;-90
2023/12/22 16:28:08;;;;;;;8.00;2.70;;;;;;;1.82;95.36;96331.38;271580;1268;22328;-91
2023/12/22 16:34:10;;;;;;;10.30;3.50;;;;;;;1.85;95.12;96343.48;271706;1268;22200;-89
2023/12/22 16:40:15;;;;;;;9.10;3.60;;;;;;;1.85;95.32;96349.12;273599;1268;23187;-91
2023/12/22 16:46:19;;;;;;;11.40;4.10;;;;;;;1.86;94.96;96354.05;273554;1268;22449;-91
2023/12/22 16:52:34;;;;;;;;;;;;;;;;;;;;;
2023/12/22 16:58:37;;;;;;;11.50;3.80;;;;;;;1.86;94.74;96363.67;273108;1268;22378;-91
2023/12/22 17:04:45;;;;;;;9.30;3.60;;;;;;;1.84;94.43;96355.58;273206;1268;22254;-92
2023/12/22 17:10:49;;;;;;;10.90;3.60;;;;;;;1.76;94.32;96350.00;272005;1268;25247;-91
2023/12/22 17:16:51;;;;;;;7.00;2.80;;;;;;;1.71;93.90;96351.45;263689;1268;10001431;-91
2023/12/22 17:22:53;;;;;;;11.50;4.00;;;;;;;1.69;93.86;96366.24;273676;1267;22422;-91
2023/12/22 17:28:55;;;;;;;9.00;3.50;;;;;;;1.68;93.55;96376.88;273258;1268;22426;-91
2023/12/22 17:35:02;;;;;;;8.10;3.30;;;;;;;1.65;93.96;96376.70;271625;1268;22513;-91
2023/12/22 17:41:07;;;;;;;10.50;3.90;;;;;;;1.65;94.04;96376.08;272543;1268;23388;-90
2023/12/22 17:47:10;;;;;;;9.50;3.20;;;;;;;1.64;93.84;96376.69;272830;1268;22342;-91
2023/12/22 17:53:13;;;;;;;8.20;3.00;;;;;;;1.69;93.53;96376.41;273398;1268;22571;-89
2023/12/22 17:59:18;;;;;;;8.80;3.20;;;;;;;1.72;93.68;96376.04;273272;1268;24561;-90
2023/12/22 18:05:27;;;;;;;8.20;3.40;;;;;;;1.74;93.46;96377.36;273012;1268;23686;-90
2023/12/22 18:11:32;;;;;;;11.80;3.30;;;;;;;1.78;92.97;96380.98;273059;1271;23475;-89
2023/12/22 18:17:41;;;;;;;12.00;3.30;;;;;;;1.77;93.23;96382.29;273497;1269;23201;-91
2023/12/22 18:23:43;;;;;;;8.40;3.00;;;;;;;1.76;93.09;96388.30;273472;1271;22545;-91
2023/12/22 18:29:53;;;;;;;8.10;2.60;;;;;;;1.75;93.51;96394.23;271732;1268;22601;-92
2023/12/22 18:36:14;;;;;;;8.20;2.50;;;;;;;1.71;93.85;96397.31;272968;1268;22455;-89
2023/12/22 18:42:16;;;;;;;10.70;4.20;;;;;;;1.69;94.12;96389.76;273529;1267;22213;-92
2023/12/22 18:48:41;;;;;;;7.20;2.70;;;;;;;1.67;93.99;96374.95;273805;1268;22194;-88
2023/12/22 18:55:45;;;;;;;;;;;;;;;;;;;;;
2023/12/22 19:02:31;;;;;;;10.80;4.20;;;;;;;1.53;94.31;96371.88;272559;1269;22201;-91
2023/12/22 19:09:09;;;;;;;10.60;3.30;;;;;;;1.54;94.04;96379.20;269714;1275;4115381;-91
2023/12/22 19:15:24;;;;;;;;;;;;;;;;;;;;;
2023/12/22 19:21:27;;;;;;;11.00;3.20;;;;;;;1.64;93.40;96376.93;270202;1268;22585;-90
2023/12/22 19:27:44;;;;;;;11.20;3.00;;;;;;;1.69;92.90;96380.42;272232;1268;22212;-92
2023/12/22 19:34:02;;;;;;;10.40;3.30;;;;;;;1.62;92.37;96383.86;272138;1267;22447;-91
2023/12/22 19:47:09;;;;;;;12.50;2.90;;;;;;;1.48;92.60;96402.67;272577;1269;22377;-91
2023/12/22 19:53:23;;;;;;;10.00;3.20;;;;;;;1.43;92.73;96409.42;273597;1268;22295;-90
2023/12/22 19:59:28;;;;;;;10.10;3.60;;;;;;;1.40;92.98;96427.80;273695;1268;22235;-91
2023/12/22 20:05:31;;;;;;;14.90;3.70;;;;;;;1.41;93.31;96428.58;270605;1269;22287;-91
2023/12/22 20:11:34;;;;;;;14.90;4.50;;;;;;;1.39;93.84;96425.65;271989;1268;25505;-89
2023/12/22 20:17:35;;;;;;;8.10;2.80;;;;;;;1.35;94.11;96423.70;272110;1265;23144;-90
2023/12/22 20:23:37;;;;;;;10.10;3.90;;;;;;;1.37;93.93;96419.63;270113;1269;22610;-88
2023/12/22 20:29:40;;;;;;;9.20;3.30;;;;;;;1.35;93.94;96417.46;272388;1269;22198;-90
2023/12/22 20:35:42;;;;;;;8.60;3.60;;;;;;;1.36;94.10;96421.33;273884;1270;22505;-90
2023/12/22 20:41:45;;;;;;;16.60;4.90;;;;;;;1.38;94.24;96416.25;273158;1268;22520;-91
2023/12/22 20:47:47;;;;;;;13.50;4.70;;;;;;;1.40;93.86;96397.02;271680;1269;22225;-92
2023/12/22 20:53:48;;;;;;;14.20;5.20;;;;;;;1.37;93.85;96407.70;272846;1269;23075;-91
2023/12/22 20:59:53;;;;;;;10.60;3.30;;;;;;;1.32;94.11;96423.91;271724;1269;22552;-91
2023/12/22 21:06:00;;;;;;;10.70;2.80;;;;;;;1.33;93.85;96428.31;271718;1268;24278;-91
2023/12/22 21:12:02;;;;;;;14.30;4.10;;;;;;;1.33;93.55;96444.33;270558;1268;22580;-90
2023/12/22 21:18:09;;;;;;;13.10;3.20;;;;;;;1.31;93.74;96454.71;273139;1268;22428;-90
2023/12/22 21:24:11;;;;;;;9.70;3.20;;;;;;;1.31;93.69;96462.66;273701;1268;22209;-91
2023/12/22 21:30:13;;;;;;;12.20;3.90;;;;;;;1.33;93.55;96463.73;273776;1269;22404;-91
2023/12/22 21:36:22;;;;;;;18.00;3.60;;;;;;;1.29;93.67;96468.02;273338;1270;23045;-91
2023/12/22 21:42:28;;;;;;;13.40;4.00;;;;;;;1.28;93.56;96479.80;273404;1267;22298;-90
2023/12/22 21:48:30;;;;;;;11.50;2.70;;;;;;;1.30;93.49;96481.96;273793;1268;22367;-91
2023/12/22 21:54:33;;;;;;;12.10;3.20;;;;;;;1.28;93.50;96471.70;273740;1268;22448;-91
2023/12/22 22:00:35;;;;;;;9.50;3.00;;;;;;;1.28;93.15;96477.17;273767;1268;23309;-89
2023/12/22 22:06:40;;;;;;;14.80;3.70;;;;;;;1.32;92.89;96477.13;273349;1274;22190;-91
2023/12/22 22:12:42;;;;;;;13.70;3.70;;;;;;;1.33;92.79;96479.98;273575;1270;22271;-90
2023/12/22 22:18:44;;;;;;;9.30;3.00;;;;;;;1.35;92.61;96477.91;272183;1268;22557;-88
2023/12/22 22:24:46;;;;;;;10.70;3.60;;;;;;;1.35;92.65;96465.29;272995;1258;22842;-89
2023/12/22 22:30:48;;;;;;;12.20;3.60;;;;;;;1.32;92.55;96458.27;271425;1272;23400;-89
2023/12/22 22:36:49;;;;;;;10.00;2.80;;;;;;;1.27;92.69;96433.82;273101;1270;22545;-89
2023/12/22 22:42:51;;;;;;;10.40;3.40;;;;;;;1.23;92.61;96446.27;271054;1270;23397;-89
2023/12/22 22:49:12;;;;;;;10.10;3.40;;;;;;;1.22;92.51;96452.65;271892;1273;23351;-89
2023/12/22 22:55:14;;;;;;;11.90;3.70;;;;;;;1.23;92.71;96451.80;272194;1268;22199;-90
2023/12/22 23:01:16;;;;;;;15.50;4.20;;;;;;;1.22;92.81;96452.11;270813;1267;23166;-90
2023/12/22 23:07:18;;;;;;;13.30;4.60;;;;;;;1.23;93.09;96449.42;270610;1272;22635;-88
2023/12/22 23:13:20;;;;;;;8.10;2.80;;;;;;;1.25;93.27;96452.59;272506;1269;23148;-89
2023/12/22 23:19:22;;;;;;;9.30;2.90;;;;;;;1.29;93.16;96444.77;272788;1269;23862;-88
2023/12/22 23:25:24;;;;;;;9.90;2.80;;;;;;;1.28;93.06;96442.23;272992;1261;22834;-90
2023/12/22 23:31:26;;;;;;;8.70;2.60;;;;;;;1.21;93.05;96460.20;273720;1268;23290;-88
2023/12/22 23:37:28;;;;;;;7.80;2.40;;;;;;;1.15;92.93;96474.47;273634;1272;23397;-89
2023/12/22 23:43:32;;;;;;;10.40;3.50;;;;;;;1.09;93.00;96472.73;273706;1269;22277;-90
2023/12/22 23:49:34;;;;;;;10.50;3.20;;;;;;;1.05;93.02;96474.94;272836;1269;23460;-87
2023/12/22 23:55:36;;;;;;;9.20;2.40;;;;;;;1.03;93.11;96474.08;272947;1268;22540;-88
